CLIO2: Washita River Nr Clinton, OK

Data processed at Wed May 22 2019 23:30


All information presented herein is the property of the government of the United States of America and may be revised or deleted at any time without prior notice.
Dissemination of this information without the expressed written consent of the Public Affairs Office, Tulsa District U.S. Army Corps of Engineers is strictly prohibited.
These data are gathered electronically and, as presented, have not undergone any form of quality control. These data are not guaranteed to be valid or correct.
Go to home page.
Go to station list.
Go to home page.

Upstream stations:

Downstream station:
Previous Day
Next Day
Current Day
    
SHEF ID:       CLIO2     Washita River near Clinton, OK
STATION TYPE:  
Regulating: Stage =    18.00, Flow =     2090

               PRECIP     STAGE  RIV-FLOW  BAT-LOAD
                   in        ft       cfs      volt
              Ccp-Rev   Ccp-Rev   Ccp-Rev   Ccp-Rev
(US/Central)
05/22 00:00      0.00     18.52      2204     12.36
05/22 01:00      0.00     18.50      2199     12.30
05/22 02:00      0.00     18.36      2168     12.30
05/22 03:00      0.00     18.15      2123     12.36
05/22 04:00      0.00     17.91      2072     12.36
05/22 05:00      0.00     17.63      2015     12.30
05/22 06:00      0.00     17.34      1957     12.24
05/22 07:00      0.00     17.02      1894     12.24
05/22 08:00      0.00     16.71      1834     13.07
05/22 09:00      0.00     16.40      1775     13.48
05/22 10:00      0.00     16.17      1732     13.83
05/22 11:00      0.00     15.92      1685     14.06
05/22 12:00      0.00     15.68      1639     14.12
05/22 13:00      0.00     15.49      1602     13.88
05/22 14:00      0.00     15.29      1564     13.77
05/22 15:00      0.00     15.10      1529     13.48
05/22 16:00      0.00     14.95      1500     13.48
05/22 17:00      0.00     14.77      1466     13.07
05/22 18:00      0.00     14.63      1439     12.89
05/22 19:00      0.00     14.48      1411     12.95
05/22 20:00      0.00     14.33      1383     12.65
05/22 21:00      0.00     14.20      1358     12.42
05/22 22:00      0.00     14.04      1328     12.42
05/22 23:00      ----      ----      ----      ----